createdAt,value
2023-02-03T00:01:24.310Z,8.90
2023-02-03T00:03:52.303Z,8.90
2023-02-03T00:06:21.932Z,8.90
2023-02-03T00:08:50.232Z,8.90
2023-02-03T00:11:18.206Z,8.80
2023-02-03T00:13:46.167Z,8.90
2023-02-03T00:16:14.281Z,8.90
2023-02-03T00:18:42.234Z,8.90
2023-02-03T00:21:10.232Z,8.90
2023-02-03T00:23:39.529Z,8.90
2023-02-03T00:26:11.679Z,9.00
2023-02-03T00:28:42.046Z,8.90
2023-02-03T00:31:17.303Z,8.90
2023-02-03T00:33:47.559Z,8.90
2023-02-03T00:36:15.785Z,8.90
2023-02-03T00:38:45.191Z,8.90
2023-02-03T00:41:13.270Z,8.90
2023-02-03T00:43:41.267Z,8.90
2023-02-03T00:46:09.227Z,8.90
2023-02-03T00:48:37.239Z,8.90
2023-02-03T00:51:05.376Z,9.00
2023-02-03T00:53:33.823Z,9.00
2023-02-03T00:56:04.187Z,8.90
2023-02-03T00:58:32.266Z,8.90
2023-02-03T01:01:00.222Z,9.00
2023-02-03T01:03:28.215Z,8.90
2023-02-03T01:05:56.205Z,8.90
2023-02-03T01:08:24.210Z,8.90
2023-02-03T01:10:52.187Z,8.90
2023-02-03T01:13:21.554Z,9.00
2023-02-03T01:15:49.645Z,9.00
2023-02-03T01:18:17.652Z,9.00
2023-02-03T01:20:45.707Z,9.00
2023-02-03T01:23:13.633Z,9.00
2023-02-03T01:25:41.643Z,9.00
2023-02-03T01:28:09.923Z,8.90
2023-02-03T01:30:39.391Z,8.90
2023-02-03T01:33:07.421Z,8.90
2023-02-03T01:35:36.223Z,8.90
2023-02-03T01:38:04.227Z,8.90
2023-02-03T01:40:33.031Z,8.90
2023-02-03T01:43:01.371Z,8.90
2023-02-03T01:45:29.382Z,9.00
2023-02-03T01:48:00.587Z,9.00
2023-02-03T01:50:32.106Z,9.00
2023-02-03T01:53:04.655Z,9.00
2023-02-03T01:55:36.120Z,9.00
2023-02-03T01:58:08.481Z,9.00
2023-02-03T02:00:36.548Z,9.00
2023-02-03T02:03:06.986Z,9.10
2023-02-03T02:05:39.080Z,9.10
2023-02-03T02:08:08.427Z,9.00
2023-02-03T02:10:36.437Z,9.10
2023-02-03T02:13:05.992Z,9.10
2023-02-03T02:15:44.295Z,9.10
2023-02-03T02:18:23.097Z,9.00
2023-02-03T02:21:33.278Z,9.10
2023-02-03T02:24:46.299Z,9.10
2023-02-03T02:27:30.331Z,9.10
2023-02-03T02:30:33.604Z,9.10
2023-02-03T02:33:15.792Z,9.10
2023-02-03T02:35:58.018Z,9.10
2023-02-03T02:38:38.872Z,9.00
2023-02-03T02:41:15.719Z,9.10
2023-02-03T02:43:51.128Z,9.10
2023-02-03T02:46:25.498Z,9.20
2023-02-03T02:49:00.011Z,9.10
2023-02-03T02:51:30.658Z,9.10
2023-02-03T02:54:03.646Z,9.10
2023-02-03T02:56:34.091Z,9.00
2023-02-03T02:59:04.267Z,9.10
2023-02-03T03:01:32.627Z,9.10
2023-02-03T03:04:05.058Z,9.10
2023-02-03T03:06:39.430Z,9.10
2023-02-03T03:09:10.515Z,9.10
2023-02-03T03:11:44.606Z,9.10
2023-02-03T03:14:13.955Z,9.20
2023-02-03T03:16:47.479Z,9.10
2023-02-03T03:19:20.151Z,9.00
2023-02-03T03:21:51.777Z,9.00
2023-02-03T03:24:23.231Z,9.00
2023-02-03T03:26:55.969Z,9.00
2023-02-03T03:29:27.783Z,9.00
2023-02-03T03:31:55.968Z,9.00
2023-02-03T03:34:25.431Z,9.10
2023-02-03T03:36:59.248Z,9.00
2023-02-03T03:39:34.098Z,9.10
2023-02-03T03:42:06.026Z,9.10
2023-02-03T03:44:40.692Z,9.00
2023-02-03T03:47:13.637Z,9.10
2023-02-03T03:49:46.286Z,9.10
2023-02-03T03:52:17.728Z,9.10
2023-02-03T03:54:48.501Z,9.10
2023-02-03T03:57:22.974Z,9.10
2023-02-03T03:59:51.996Z,9.10
2023-02-03T04:02:22.178Z,9.10
2023-02-03T04:04:55.248Z,9.10
2023-02-03T04:07:23.238Z,9.10
2023-02-03T04:09:51.207Z,9.10
2023-02-03T04:12:24.692Z,9.10
2023-02-03T04:14:52.659Z,9.20
2023-02-03T04:17:20.703Z,9.10
2023-02-03T04:19:48.990Z,9.10
2023-02-03T04:22:18.382Z,9.10
2023-02-03T04:24:46.678Z,9.10
2023-02-03T04:27:14.638Z,9.10
2023-02-03T04:29:42.597Z,9.10
2023-02-03T04:32:10.700Z,9.10
2023-02-03T04:34:38.712Z,9.10
2023-02-03T04:37:06.672Z,9.20
2023-02-03T04:39:36.045Z,9.20
2023-02-03T04:42:04.050Z,9.20
2023-02-03T04:44:32.280Z,9.30
2023-02-03T04:47:00.228Z,9.20
2023-02-03T04:49:28.324Z,9.20
2023-02-03T04:51:56.266Z,9.30
2023-02-03T04:54:24.255Z,9.20
2023-02-03T04:56:53.603Z,9.10
2023-02-03T04:59:21.582Z,9.10
2023-02-03T05:01:49.573Z,9.20
2023-02-03T05:04:17.825Z,9.20
2023-02-03T05:06:45.850Z,9.20
2023-02-03T05:09:14.116Z,9.20
2023-02-03T05:11:42.088Z,9.20
2023-02-03T05:14:11.422Z,9.20
2023-02-03T05:16:39.465Z,9.30
2023-02-03T05:19:08.317Z,9.30
2023-02-03T05:21:36.654Z,9.20
2023-02-03T05:24:07.754Z,9.20
2023-02-03T05:26:36.405Z,9.20
2023-02-03T05:29:05.073Z,9.20
2023-02-03T05:31:34.733Z,9.20
2023-02-03T05:34:02.876Z,9.30
2023-02-03T05:36:30.893Z,9.20
2023-02-03T05:38:59.420Z,9.30
2023-02-03T05:41:44.990Z,9.20
2023-02-03T05:44:13.044Z,9.20
2023-02-03T05:46:42.343Z,9.20
2023-02-03T05:49:10.331Z,9.20
2023-02-03T05:51:39.341Z,9.30
2023-02-03T05:54:07.722Z,9.30
2023-02-03T05:56:35.818Z,9.30
2023-02-03T05:59:04.049Z,9.30
2023-02-03T06:01:32.198Z,9.30
2023-02-03T06:04:04.371Z,9.30
2023-02-03T06:06:34.281Z,9.30
2023-02-03T06:09:03.112Z,9.40
2023-02-03T06:11:31.643Z,9.30
2023-02-03T06:14:00.588Z,9.30
2023-02-03T06:16:29.365Z,9.30
2023-02-03T06:18:59.582Z,9.30
2023-02-03T06:21:29.613Z,9.30
2023-02-03T06:23:57.644Z,9.30
2023-02-03T06:26:26.112Z,9.30
2023-02-03T06:28:54.130Z,9.30
2023-02-03T06:31:22.324Z,9.30
2023-02-03T06:33:50.407Z,9.30
2023-02-03T06:36:18.377Z,9.40
2023-02-03T06:38:47.784Z,9.30
2023-02-03T06:41:15.778Z,9.30
2023-02-03T06:43:43.803Z,9.30
2023-02-03T06:46:12.574Z,9.30
2023-02-03T06:48:40.607Z,9.30
2023-02-03T06:51:08.601Z,9.30
2023-02-03T06:53:36.619Z,9.30
2023-02-03T06:56:06.608Z,9.30
2023-02-03T06:58:37.033Z,9.30
2023-02-03T07:01:05.389Z,9.30
2023-02-03T07:03:33.454Z,9.30
2023-02-03T07:06:01.412Z,9.30
2023-02-03T07:08:29.418Z,9.20
2023-02-03T07:10:57.442Z,9.20
2023-02-03T07:13:26.821Z,9.20
2023-02-03T07:15:54.853Z,9.30
2023-02-03T07:18:45.872Z,9.20
2023-02-03T07:21:12.803Z,9.30
2023-02-03T07:23:41.242Z,9.30
2023-02-03T07:26:11.782Z,9.30
2023-02-03T07:28:41.182Z,9.30
2023-02-03T07:31:10.444Z,9.30
2023-02-03T07:33:39.301Z,9.30
2023-02-03T07:36:08.959Z,9.30
2023-02-03T07:38:38.046Z,9.40
2023-02-03T07:41:06.167Z,9.30
2023-02-03T07:43:34.211Z,9.30
2023-02-03T07:46:03.693Z,9.40
2023-02-03T07:48:31.848Z,9.40
2023-02-03T07:50:59.801Z,9.40
2023-02-03T07:53:27.879Z,9.40
2023-02-03T07:55:55.890Z,9.50
2023-02-03T07:58:23.938Z,9.40
2023-02-03T08:00:51.907Z,9.40
2023-02-03T08:03:21.259Z,9.50
2023-02-03T08:05:49.692Z,9.50
2023-02-03T08:08:18.017Z,9.50
2023-02-03T08:10:46.033Z,9.50
2023-02-03T08:13:14.496Z,9.50
2023-02-03T08:15:42.528Z,9.50
2023-02-03T08:18:12.602Z,9.50
2023-02-03T08:20:42.036Z,9.50
2023-02-03T08:23:10.134Z,9.50
2023-02-03T08:25:38.134Z,9.50
2023-02-03T08:28:06.189Z,9.50
2023-02-03T08:30:34.354Z,9.40
2023-02-03T08:33:02.447Z,9.40
2023-02-03T08:35:30.536Z,9.50
2023-02-03T08:37:59.922Z,9.50
2023-02-03T08:40:28.203Z,9.50
2023-02-03T08:42:56.493Z,9.50
2023-02-03T08:45:24.524Z,9.50
2023-02-03T08:47:52.597Z,9.50
2023-02-03T08:50:20.750Z,9.30
2023-02-03T08:52:48.786Z,9.30
2023-02-03T08:55:18.316Z,9.20
2023-02-03T08:57:46.333Z,9.20
2023-02-03T09:00:15.584Z,9.20
2023-02-03T09:02:43.717Z,9.10
2023-02-03T09:05:12.528Z,9.10
2023-02-03T09:07:40.572Z,9.00
2023-02-03T09:10:08.971Z,9.00
2023-02-03T09:12:38.397Z,9.00
2023-02-03T09:15:07.105Z,9.00
2023-02-03T09:17:35.540Z,8.90
2023-02-03T09:20:03.993Z,8.90
2023-02-03T09:22:32.005Z,8.90
2023-02-03T09:25:00.257Z,8.90
2023-02-03T09:27:28.213Z,8.90
2023-02-03T09:29:58.478Z,9.00
2023-02-03T09:32:26.700Z,9.00
2023-02-03T09:34:54.668Z,9.00
2023-02-03T09:37:22.704Z,8.90
2023-02-03T09:39:50.683Z,9.00
2023-02-03T09:42:45.805Z,8.90
2023-02-03T09:45:23.841Z,8.80
2023-02-03T09:47:55.308Z,8.80
2023-02-03T09:50:26.027Z,8.70
2023-02-03T09:52:55.130Z,8.70
2023-02-03T09:55:35.058Z,8.80
2023-02-03T09:58:07.142Z,8.80
2023-02-03T10:00:41.041Z,8.80
2023-02-03T10:03:17.929Z,8.80
2023-02-03T10:06:04.731Z,8.80
2023-02-03T10:08:49.057Z,8.80
2023-02-03T10:11:30.709Z,8.90
2023-02-03T10:14:11.639Z,8.90
2023-02-03T10:16:57.463Z,8.90
2023-02-03T10:19:37.149Z,8.80
2023-02-03T10:22:06.623Z,8.90
2023-02-03T10:24:41.622Z,8.90
2023-02-03T10:27:18.354Z,8.90
2023-02-03T10:29:50.293Z,9.00
2023-02-03T10:32:19.621Z,9.00
2023-02-03T10:34:49.362Z,9.00
2023-02-03T10:37:29.322Z,9.10
2023-02-03T10:40:00.588Z,9.10
2023-02-03T10:42:51.094Z,9.10
2023-02-03T10:45:19.384Z,9.10
2023-02-03T10:47:52.547Z,9.10
2023-02-03T10:50:23.993Z,9.20
2023-02-03T10:52:52.008Z,9.20
2023-02-03T10:55:33.070Z,9.30
2023-02-03T10:58:11.595Z,9.40
2023-02-03T11:00:40.004Z,9.40
2023-02-03T11:03:25.069Z,9.50
2023-02-03T11:06:10.175Z,9.50
2023-02-03T11:08:40.339Z,9.50
2023-02-03T11:11:10.420Z,9.50
2023-02-03T11:13:38.633Z,9.50
2023-02-03T11:16:08.790Z,9.50
2023-02-03T11:18:44.935Z,9.50
2023-02-03T11:21:17.330Z,9.50
2023-02-03T11:23:57.703Z,9.50
2023-02-03T11:26:28.960Z,9.50
2023-02-03T11:29:00.517Z,9.50
2023-02-03T11:31:53.671Z,9.50
2023-02-03T11:34:28.170Z,9.50
2023-02-03T11:36:56.966Z,9.60
2023-02-03T11:39:30.155Z,9.50
2023-02-03T11:41:58.269Z,9.60
2023-02-03T11:44:29.390Z,9.60
2023-02-03T11:47:00.195Z,9.70
2023-02-03T11:50:02.143Z,9.70
2023-02-03T11:52:54.199Z,9.80
2023-02-03T11:55:32.823Z,9.80
2023-02-03T11:58:15.046Z,9.90
2023-02-03T12:00:51.695Z,9.80
2023-02-03T12:03:44.821Z,9.90
2023-02-03T12:06:47.799Z,9.90
2023-02-03T12:09:25.959Z,10.00
2023-02-03T12:12:27.365Z,9.90
2023-02-03T12:15:06.853Z,10.00
2023-02-03T12:17:49.044Z,10.10
2023-02-03T12:20:28.939Z,10.10
2023-02-03T12:23:06.911Z,10.10
2023-02-03T12:25:45.517Z,10.20
2023-02-03T12:28:33.232Z,10.20
2023-02-03T12:31:08.671Z,10.20
2023-02-03T12:33:43.368Z,10.30
2023-02-03T12:36:16.042Z,10.30
2023-02-03T12:38:48.904Z,10.30
2023-02-03T12:41:20.461Z,10.30
2023-02-03T12:43:52.585Z,10.40
2023-02-03T12:46:25.793Z,10.40
2023-02-03T12:48:58.796Z,10.40
2023-02-03T12:51:34.613Z,10.40
2023-02-03T12:54:11.509Z,10.50
2023-02-03T12:56:44.681Z,10.50
2023-02-03T12:59:18.623Z,10.50
2023-02-03T13:01:51.003Z,10.50
2023-02-03T13:04:28.609Z,10.40
2023-02-03T13:07:05.403Z,10.50
2023-02-03T13:09:40.692Z,10.50
2023-02-03T13:12:16.298Z,10.50
2023-02-03T13:14:49.382Z,10.50
2023-02-03T13:17:23.128Z,10.50
2023-02-03T13:19:55.713Z,10.60
2023-02-03T13:22:24.850Z,10.60
2023-02-03T13:25:00.712Z,10.60
2023-02-03T13:27:43.869Z,10.60
2023-02-03T13:30:41.359Z,10.60
2023-02-03T13:33:36.603Z,10.60
2023-02-03T13:36:18.252Z,10.60
2023-02-03T13:39:08.221Z,10.60
2023-02-03T13:41:43.075Z,10.60
2023-02-03T13:44:14.848Z,10.60
2023-02-03T13:46:43.350Z,10.70
2023-02-03T13:49:21.937Z,10.70
2023-02-03T13:51:49.992Z,10.80
2023-02-03T13:54:26.533Z,10.90
2023-02-03T13:56:59.825Z,10.90
2023-02-03T13:59:50.857Z,10.90
2023-02-03T14:02:43.725Z,11.00
2023-02-03T14:05:44.941Z,11.00
2023-02-03T14:08:54.911Z,11.10
2023-02-03T14:11:43.526Z,11.00
2023-02-03T14:14:44.929Z,11.00
2023-02-03T14:17:50.273Z,11.10
2023-02-03T14:20:53.039Z,11.00
2023-02-03T14:23:30.580Z,11.00
2023-02-03T14:26:00.449Z,10.90
2023-02-03T14:28:39.870Z,10.80
2023-02-03T14:31:19.025Z,10.80
2023-02-03T14:34:09.254Z,10.90
2023-02-03T14:36:50.483Z,11.00
2023-02-03T14:39:55.169Z,11.00
2023-02-03T14:43:10.459Z,11.00
2023-02-03T14:46:08.032Z,11.00
2023-02-03T14:48:52.989Z,11.00
2023-02-03T14:51:36.040Z,11.00
2023-02-03T14:54:25.734Z,11.00
2023-02-03T14:57:17.091Z,11.00
2023-02-03T14:59:48.341Z,10.90
2023-02-03T15:02:20.189Z,10.90
2023-02-03T15:04:51.577Z,10.80
2023-02-03T15:07:45.186Z,10.90
2023-02-03T15:13:04.290Z,10.80
2023-02-03T15:15:35.135Z,10.80
2023-02-03T15:18:22.763Z,10.60
2023-02-03T15:20:56.016Z,10.30
2023-02-03T15:23:26.093Z,10.10
2023-02-03T15:25:55.605Z,9.90
2023-02-03T15:28:25.918Z,9.80
2023-02-03T15:30:59.836Z,9.70
2023-02-03T15:33:30.573Z,9.60
2023-02-03T15:36:04.723Z,9.60
2023-02-03T15:38:39.250Z,9.60
2023-02-03T15:41:12.432Z,9.50
2023-02-03T15:43:43.398Z,9.50
2023-02-03T15:46:18.764Z,9.50
2023-02-03T15:48:50.707Z,9.50
2023-02-03T15:51:23.581Z,9.50
2023-02-03T15:53:57.271Z,9.60
2023-02-03T15:56:37.737Z,9.50
2023-02-03T15:59:06.411Z,9.50
2023-02-03T16:01:34.624Z,9.50
2023-02-03T16:04:02.829Z,9.50
2023-02-03T16:06:38.406Z,9.50
2023-02-03T16:09:08.446Z,9.60
2023-02-03T16:11:38.068Z,9.60
2023-02-03T16:14:07.721Z,9.50
2023-02-03T16:16:40.002Z,9.60
2023-02-03T16:19:14.792Z,9.50
2023-02-03T16:21:56.229Z,9.60
2023-02-03T16:24:42.407Z,9.60
2023-02-03T16:27:37.609Z,9.50
2023-02-03T16:30:42.612Z,9.60
2023-02-03T16:33:36.234Z,9.50
2023-02-03T16:36:29.544Z,9.50
2023-02-03T16:39:19.695Z,9.50
2023-02-03T16:42:05.101Z,9.50
2023-02-03T16:44:50.841Z,9.50
2023-02-03T16:47:44.191Z,9.50
2023-02-03T16:50:38.628Z,9.50
2023-02-03T16:53:07.753Z,9.40
2023-02-03T16:55:37.109Z,9.40
2023-02-03T16:58:05.128Z,9.40
2023-02-03T17:00:33.173Z,9.40
2023-02-03T17:03:04.721Z,9.40
2023-02-03T17:05:32.900Z,9.40
2023-02-03T17:08:01.058Z,9.30
2023-02-03T17:10:29.125Z,9.40
2023-02-03T17:13:01.162Z,9.30
2023-02-03T17:15:29.805Z,9.30
2023-02-03T17:17:59.980Z,9.30
2023-02-03T17:20:28.069Z,9.20
2023-02-03T17:22:56.202Z,9.20
2023-02-03T17:25:24.165Z,9.20
2023-02-03T17:27:52.510Z,9.20
2023-02-03T17:30:22.083Z,9.20
2023-02-03T17:32:50.106Z,9.20
2023-02-03T17:35:18.144Z,9.20
2023-02-03T17:37:57.148Z,9.20
2023-02-03T17:54:20.833Z,9.00
2023-02-03T17:56:49.339Z,9.00
2023-02-03T17:59:17.482Z,9.00
2023-02-03T18:01:47.713Z,9.00
2023-02-03T18:04:15.756Z,8.90
2023-02-03T18:06:43.988Z,8.90
2023-02-03T18:09:14.112Z,8.90
2023-02-03T18:11:42.286Z,8.90
2023-02-03T18:14:12.348Z,8.90
2023-02-03T18:16:40.445Z,9.00
2023-02-03T18:19:14.115Z,8.90
2023-02-03T18:21:45.210Z,8.90
2023-02-03T18:24:14.366Z,9.00
2023-02-03T18:26:49.689Z,9.00
2023-02-03T18:29:18.587Z,9.00
2023-02-03T18:31:46.681Z,9.00
2023-02-03T18:34:16.546Z,9.00
2023-02-03T18:36:44.633Z,9.00
2023-02-03T18:39:14.262Z,9.00
2023-02-03T18:41:42.951Z,9.10
2023-02-03T18:44:12.050Z,9.10
2023-02-03T18:46:40.040Z,9.10
2023-02-03T18:49:10.387Z,9.10
2023-02-03T18:51:39.851Z,9.00
2023-02-03T18:54:07.900Z,9.10
2023-02-03T18:56:35.996Z,9.10
2023-02-03T18:59:08.855Z,9.10
2023-02-03T19:01:38.685Z,9.20
2023-02-03T19:04:07.209Z,9.10
2023-02-03T19:06:36.352Z,9.10
2023-02-03T19:09:06.468Z,9.00
2023-02-03T19:11:35.015Z,9.00
2023-02-03T19:14:03.142Z,9.00
2023-02-03T19:16:31.628Z,9.00
2023-02-03T19:18:59.829Z,9.00
2023-02-03T19:21:28.759Z,9.00
2023-02-03T19:23:56.762Z,9.00
2023-02-03T19:26:27.704Z,9.00
2023-02-03T19:28:56.254Z,9.00
2023-02-03T19:31:24.548Z,9.00
2023-02-03T19:33:52.726Z,9.00
2023-02-03T19:36:20.717Z,9.00
2023-02-03T19:38:49.669Z,9.00
2023-02-03T19:41:17.592Z,9.00
2023-02-03T19:43:47.820Z,9.00
2023-02-03T19:46:15.987Z,9.00
2023-02-03T19:48:44.039Z,9.00
2023-02-03T19:51:12.076Z,9.10
2023-02-03T19:53:40.117Z,9.10
2023-02-03T19:56:08.460Z,9.10
2023-02-03T19:58:36.464Z,9.00
2023-02-03T20:01:06.100Z,9.00
2023-02-03T20:03:34.176Z,9.10
2023-02-03T20:06:02.170Z,9.10
2023-02-03T20:08:30.156Z,9.10
2023-02-03T20:10:58.226Z,9.10
2023-02-03T20:13:26.319Z,9.10
2023-02-03T20:15:54.348Z,9.10
2023-02-03T20:18:23.813Z,9.00
2023-02-03T20:20:52.419Z,9.00
2023-02-03T20:23:20.435Z,9.00
2023-02-03T20:25:50.165Z,9.00
2023-02-03T20:28:18.674Z,9.00
2023-02-03T20:30:46.851Z,9.00
2023-02-03T20:33:16.947Z,9.00
2023-02-03T20:35:46.313Z,9.00
2023-02-03T20:38:15.558Z,9.00
2023-02-03T20:40:47.801Z,9.00
2023-02-03T20:43:19.002Z,9.00
2023-02-03T20:45:49.449Z,8.90
2023-02-03T20:48:19.655Z,8.90
2023-02-03T20:50:50.203Z,8.90
2023-02-03T20:53:20.256Z,8.90
2023-02-03T20:55:48.318Z,8.90
2023-02-03T20:58:19.109Z,8.90
2023-02-03T21:00:49.403Z,8.90
2023-02-03T21:03:37.280Z,8.80
2023-02-03T21:06:14.194Z,8.80
2023-02-03T21:08:43.066Z,8.80
2023-02-03T21:11:13.187Z,8.80
2023-02-03T21:13:43.419Z,8.80
2023-02-03T21:16:20.554Z,8.80
2023-02-03T21:18:52.841Z,8.80
2023-02-03T21:21:28.090Z,8.80
2023-02-03T21:23:56.532Z,8.80
2023-02-03T21:26:26.509Z,8.70
2023-02-03T21:28:55.928Z,8.70
2023-02-03T21:31:27.257Z,8.70
2023-02-03T21:33:56.796Z,8.70
2023-02-03T21:36:28.413Z,8.70
2023-02-03T21:38:59.034Z,8.70
2023-02-03T21:41:30.351Z,8.70
2023-02-03T21:43:59.667Z,8.70
2023-02-03T21:46:32.757Z,8.70
2023-02-03T21:49:01.749Z,8.70
2023-02-03T21:51:36.198Z,8.70
2023-02-03T21:54:23.918Z,8.70
2023-02-03T21:56:51.912Z,8.70
2023-02-03T21:59:21.542Z,8.70
2023-02-03T22:01:50.017Z,8.70
2023-02-03T22:04:18.014Z,8.70
2023-02-03T22:06:49.970Z,8.70
2023-02-03T22:09:20.041Z,8.70
2023-02-03T22:11:48.166Z,8.80
2023-02-03T22:14:17.503Z,8.80
2023-02-03T22:16:45.782Z,8.70
2023-02-03T22:19:14.037Z,8.70
2023-02-03T22:21:45.115Z,8.80
2023-02-03T22:24:14.476Z,8.80
2023-02-03T22:26:42.458Z,8.80
2023-02-03T22:29:10.430Z,8.70
2023-02-03T22:31:38.518Z,8.70
2023-02-03T22:34:06.572Z,8.70
2023-02-03T22:36:34.559Z,8.70
2023-02-03T22:39:02.560Z,8.70
2023-02-03T22:41:31.949Z,8.60
2023-02-03T22:44:00.009Z,8.70
2023-02-03T22:46:28.042Z,8.70
2023-02-03T22:48:56.105Z,8.60
2023-02-03T22:51:24.161Z,8.70
2023-02-03T22:53:52.148Z,8.70
2023-02-03T22:56:20.118Z,8.70
2023-02-03T22:58:49.442Z,8.60
2023-02-03T23:01:17.426Z,8.60
2023-02-03T23:03:45.395Z,8.60
2023-02-03T23:06:13.408Z,8.60
2023-02-03T23:08:41.376Z,8.60
2023-02-03T23:11:09.350Z,8.60
2023-02-03T23:13:37.316Z,8.50
2023-02-03T23:16:07.176Z,8.50
2023-02-03T23:18:35.172Z,8.50
2023-02-03T23:21:03.157Z,8.40
2023-02-03T23:23:31.172Z,8.40
2023-02-03T23:25:59.133Z,8.40
2023-02-03T23:28:27.335Z,8.40
2023-02-03T23:30:55.901Z,8.40
2023-02-03T23:33:25.371Z,8.40
2023-02-03T23:35:52.933Z,8.40
2023-02-03T23:38:20.870Z,8.30
2023-02-03T23:40:48.930Z,8.30
2023-02-03T23:43:16.900Z,8.30
2023-02-03T23:45:44.871Z,8.30
2023-02-03T23:48:14.768Z,8.30
2023-02-03T23:50:44.239Z,8.30
2023-02-03T23:53:12.209Z,8.30
2023-02-03T23:55:40.207Z,8.30
2023-02-03T23:58:08.181Z,8.30
